»·PEaware :: SWA129 KRNO-KLAS

SWA129 :: KRNO-KLAS

FLIGHT INFORMATION

Flight Status: Arrived
Operator:
Southwest Airlines
More flights by this operator :: More flights under this callsign
Pilot: Ben F. (2808)
Aircraft: BOEING 737-300
(B733)
More flights by this aircraft type
Origin: KRNO Reno/Tahoe Intl
United States
Destination: KLAS McCarran Intl
United States
More flights between these airports :: More routes between these airports
Route: PVINE3 PVINE HIWAA PESKE LIDAT J92 BTY SUNST4
File this flight plan on PilotEdge
Remarks:
Altitude:
(Current/Filed)
33,000ft
Speed:
(Current/Filed)
432kts
Departed: 25-Oct-20 07:46 AM
Arrived: 25-Oct-20 08:40 AM
Distance/Time
Traveled:
300nm/0:54
Distance/Time
To Go:
Arrived

Flight Plot

Page will automatically refresh every two minutes.

Flight plan parsing failed; only flown route is shown


Map Options




Map Legend


Flown Route
Filed Route
Departure Airport
Arrival Airport
Navaid (VOR, NDB)
Fix

Horizontal Profiles

Position Reports

Time Latitude Longitude Heading Altitude Ground
Speed
25-Oct-20 07:13 39.504465 -119.773258 0 4416ft 0kts
25-Oct-20 07:14 39.504465 -119.773258 0 4416ft 0kts
25-Oct-20 07:15 39.504465 -119.773258 0 4416ft 0kts
25-Oct-20 07:16 39.504465 -119.773258 0 4416ft 0kts
25-Oct-20 07:17 39.504465 -119.773258 0 4416ft 0kts
25-Oct-20 07:17 39.504465 -119.773258 0 4416ft 0kts
25-Oct-20 07:19 39.504465 -119.773258 0 4416ft 0kts
25-Oct-20 07:19 39.504465 -119.773258 0 4416ft 0kts
25-Oct-20 07:20 39.504465 -119.773258 0 4416ft 0kts
25-Oct-20 07:21 39.504465 -119.773258 0 4416ft 0kts
25-Oct-20 07:22 39.504465 -119.773258 0 4416ft 0kts
25-Oct-20 07:23 39.504465 -119.773258 0 4416ft 0kts
25-Oct-20 07:24 39.504465 -119.773258 0 4416ft 0kts
25-Oct-20 07:25 39.504465 -119.773258 0 4416ft 0kts
25-Oct-20 07:26 39.504465 -119.773258 0 4416ft 0kts
25-Oct-20 07:27 39.504465 -119.773258 0 4416ft 0kts
25-Oct-20 07:28 39.504465 -119.773258 0 4416ft 0kts
25-Oct-20 07:29 39.504465 -119.773258 0 4416ft 0kts
25-Oct-20 07:30 39.504465 -119.773258 0 4416ft 0kts
25-Oct-20 07:31 39.504465 -119.773258 0 4416ft 0kts
25-Oct-20 07:32 39.504465 -119.773258 0 4416ft 0kts
25-Oct-20 07:33 39.504024 -119.773262 0 4416ft 2kts
25-Oct-20 07:34 39.503613 -119.773426 46 4416ft 0kts
25-Oct-20 07:35 39.503613 -119.773426 46 4416ft 0kts
25-Oct-20 07:36 39.503713 -119.773126 80 4416ft 4kts
25-Oct-20 07:37 39.503221 -119.771507 175 4416ft 14kts
25-Oct-20 07:38 39.497733 -119.771521 179 4416ft 21kts
25-Oct-20 07:39 39.491862 -119.771539 179 4416ft 21kts
25-Oct-20 07:40 39.486571 -119.771545 180 4416ft 13kts
25-Oct-20 07:41 39.483764 -119.770423 89 4416ft 0kts
25-Oct-20 07:42 39.483764 -119.770423 89 4416ft 0kts
25-Oct-20 07:43 39.483765 -119.770244 89 4416ft 5kts
25-Oct-20 07:44 39.486510 -119.769242 4 4416ft 40kts
25-Oct-20 07:45 39.523467 -119.770126 1 5140ft 174kts
25-Oct-20 07:46 39.571403 -119.759556 10 6987ft 189kts
25-Oct-20 07:47 39.628377 -119.735381 37 7988ft 260kts
25-Oct-20 07:48 39.665390 -119.652959 91 10187ft 298kts
25-Oct-20 07:49 39.601124 -119.573191 154 11313ft 369kts
25-Oct-20 07:50 39.505543 -119.512956 155 13504ft 396kts
25-Oct-20 07:51 39.402519 -119.448572 154 15595ft 423kts
25-Oct-20 07:52 39.293326 -119.380579 153 17544ft 446kts
25-Oct-20 07:53 39.178814 -119.309325 154 19555ft 462kts
25-Oct-20 07:54 39.061406 -119.236645 154 21463ft 476kts
25-Oct-20 07:55 38.940138 -119.162052 155 23214ft 490kts
25-Oct-20 07:56 38.814978 -119.085794 155 24794ft 502kts
25-Oct-20 07:57 38.708600 -118.972758 127 26203ft 506kts
25-Oct-20 07:58 38.610901 -118.838781 129 27567ft 517kts
25-Oct-20 07:59 38.511654 -118.704338 129 29128ft 519kts
25-Oct-20 08:00 38.412619 -118.570732 129 30650ft 517kts
25-Oct-20 08:01 38.314022 -118.438305 131 32226ft 510kts
25-Oct-20 08:02 38.215849 -118.306848 133 33043ft 505kts
25-Oct-20 08:03 38.119336 -118.178146 133 33012ft 501kts
25-Oct-20 08:04 38.022873 -118.050177 133 33019ft 502kts
25-Oct-20 08:05 37.925934 -117.922085 133 32974ft 502kts
25-Oct-20 08:06 37.829192 -117.795158 133 32928ft 500kts
25-Oct-20 08:07 37.732569 -117.668531 133 32920ft 498kts
25-Oct-20 08:08 37.636390 -117.542983 133 32919ft 493kts
25-Oct-20 08:09 37.540945 -117.418868 134 32920ft 490kts
25-Oct-20 08:10 37.445699 -117.295322 134 32917ft 486kts
25-Oct-20 08:11 37.336100 -117.197620 149 32925ft 481kts
25-Oct-20 08:12 37.225158 -117.103723 148 32917ft 478kts
25-Oct-20 08:13 37.114853 -117.010502 148 32883ft 475kts
25-Oct-20 08:14 37.005399 -116.918351 148 32859ft 473kts
25-Oct-20 08:15 36.895862 -116.826443 148 32842ft 470kts
25-Oct-20 08:16 36.788143 -116.732343 133 30878ft 472kts
25-Oct-20 08:17 36.702164 -116.607038 130 28704ft 479kts
25-Oct-20 08:18 36.615347 -116.483400 130 26308ft 467kts
25-Oct-20 08:19 36.530787 -116.363442 129 23899ft 453kts
25-Oct-20 08:20 36.448864 -116.247592 131 21479ft 439kts
25-Oct-20 08:21 36.369334 -116.136030 131 19191ft 422kts
25-Oct-20 08:22 36.293692 -116.029821 132 17311ft 397kts
25-Oct-20 08:23 36.222755 -115.930505 133 15985ft 361kts
25-Oct-20 08:24 36.176939 -115.826692 112 15642ft 347kts
25-Oct-20 08:25 36.142032 -115.717127 113 14439ft 337kts
25-Oct-20 08:26 36.107472 -115.610000 113 13239ft 330kts
25-Oct-20 08:27 36.073521 -115.505162 114 12066ft 324kts
25-Oct-20 08:28 36.040980 -115.404790 114 11024ft 300kts
25-Oct-20 08:29 36.026156 -115.306314 96 10348ft 293kts
25-Oct-20 08:30 36.019301 -115.208864 96 9145ft 279kts
25-Oct-20 08:31 36.012893 -115.114954 96 8038ft 263kts
25-Oct-20 08:32 36.007481 -115.028610 96 7188ft 246kts
25-Oct-20 08:33 36.002846 -114.945714 88 5976ft 238kts
25-Oct-20 08:34 36.052131 -114.911258 356 4945ft 217kts
25-Oct-20 08:35 36.077807 -114.958379 257 4905ft 195kts
25-Oct-20 08:36 36.073592 -115.021689 267 3853ft 173kts
25-Oct-20 08:37 36.073783 -115.077142 267 2991ft 155kts
25-Oct-20 08:38 36.073712 -115.130865 267 2193ft 152kts
25-Oct-20 08:39 36.075772 -115.151685 331 2185ft 19kts
25-Oct-20 08:40 36.078360 -115.152961 353 2185ft 9kts
25-Oct-20 08:41 36.078594 -115.148289 96 2185ft 20kts
25-Oct-20 08:42 36.079311 -115.145571 350 2185ft 7kts
25-Oct-20 08:43 36.079804 -115.145813 334 2185ft 0kts
25-Oct-20 08:44 36.079804 -115.145813 334 2185ft 0kts
25-Oct-20 08:45 36.079804 -115.145813 334 2185ft 0kts
25-Oct-20 08:46 36.079804 -115.145813 334 2185ft 0kts
25-Oct-20 08:47 36.079804 -115.145813 334 2185ft 0kts
25-Oct-20 08:48 36.079804 -115.145813 334 2185ft 0kts
25-Oct-20 08:49 36.079804 -115.145813 334 2185ft 0kts
25-Oct-20 08:50 36.079804 -115.145813 334 2185ft 0kts

Navigation Log

Ident Type
Flight plan parsing failed, navigation log unavailable